Time;durP1;ratioP1;P1;durP2;ratioP2;P2;SDS_P1;SDS_P2;PMS_P1;PMS_P2;Temp;Humidity;BMP_temperature;BMP_pressure;BME280_temperature;BME280_humidity;BME280_pressure;Samples;Min_cycle;Max_cycle;Signal;HPM_P1;HPM_P2
2023/01/04 00:00:31;;;;;;;14.50;7.50;;;;;;;3.57;78.50;101652.53;107535;1253;81103;-58
2023/01/04 00:03:34;;;;;;;15.90;7.90;;;;;;;3.55;78.52;101655.94;107519;1253;98411;-56
2023/01/04 00:06:19;;;;;;;15.20;7.50;;;;;;;3.52;78.69;101651.48;107466;1253;88620;-55
2023/01/04 00:08:55;;;;;;;13.00;7.80;;;;;;;3.55;78.76;101651.86;107525;1258;92090;-57
2023/01/04 00:11:35;;;;;;;18.20;8.90;;;;;;;3.56;78.68;101650.70;107507;1253;77782;-56
2023/01/04 00:14:16;;;;;;;15.60;8.70;;;;;;;3.57;78.55;101652.02;107546;1255;82563;-55
2023/01/04 00:17:02;;;;;;;15.90;9.60;;;;;;;3.51;78.84;101645.68;107508;1253;97663;-55
2023/01/04 00:19:38;;;;;;;15.40;8.70;;;;;;;3.45;78.58;101641.41;107479;1253;87903;-58
2023/01/04 00:22:12;;;;;;;17.70;9.40;;;;;;;3.37;78.71;101638.43;107499;1253;94568;-58
2023/01/04 00:24:56;;;;;;;13.40;8.10;;;;;;;3.30;78.59;101635.95;107519;1257;81099;-57
2023/01/04 00:27:33;;;;;;;12.40;7.30;;;;;;;3.19;78.68;101638.88;107529;1257;81765;-58
2023/01/04 00:30:11;;;;;;;18.50;9.80;;;;;;;3.11;78.75;101634.48;107567;1253;98264;-57
2023/01/04 00:32:46;;;;;;;16.60;9.60;;;;;;;3.03;78.88;101643.80;107567;1253;88439;-58
2023/01/04 00:35:21;;;;;;;16.80;8.90;;;;;;;2.93;79.02;101649.45;107549;1257;94167;-54
2023/01/04 00:37:59;;;;;;;15.90;8.90;;;;;;;2.83;79.15;101651.60;107559;1253;78131;-55
2023/01/04 00:40:39;;;;;;;15.80;9.70;;;;;;;2.78;79.11;101654.33;107588;1253;83058;-59
2023/01/04 00:43:14;;;;;;;18.60;9.70;;;;;;;2.71;79.14;101657.98;107522;1253;99132;-58
2023/01/04 00:45:54;;;;;;;18.20;9.90;;;;;;;2.65;79.13;101661.13;107518;1253;88742;-55
2023/01/04 00:48:34;;;;;;;14.70;10.30;;;;;;;2.62;79.26;101657.80;107407;1255;97129;-55
2023/01/04 00:51:22;;;;;;;18.00;9.60;;;;;;;2.57;79.32;101660.98;107506;1253;78415;-57
2023/01/04 00:53:58;;;;;;;15.60;9.50;;;;;;;2.51;79.48;101664.63;107533;1253;82206;-57
2023/01/04 00:56:36;;;;;;;18.50;10.00;;;;;;;2.42;79.50;101672.36;107478;1253;99193;-56
2023/01/04 00:59:19;;;;;;;17.00;9.80;;;;;;;2.39;79.66;101680.36;107522;1253;86401;-55
2023/01/04 01:01:56;;;;;;;17.70;9.80;;;;;;;2.36;79.75;101683.61;107475;1253;93901;-55
2023/01/04 01:04:33;;;;;;;17.30;10.00;;;;;;;2.30;79.82;101687.73;107555;1253;78426;-57
2023/01/04 01:07:16;;;;;;;20.00;10.20;;;;;;;2.29;80.06;101687.44;107507;1254;82966;-57
2023/01/04 01:10:00;;;;;;;19.00;9.90;;;;;;;2.28;80.10;101680.61;107552;1253;99396;-55
2023/01/04 01:12:40;;;;;;;22.40;12.10;;;;;;;2.26;80.00;101678.98;107385;1253;87965;-55
2023/01/04 01:15:23;;;;;;;18.80;11.00;;;;;;;2.22;80.12;101685.80;107510;1253;94668;-58
2023/01/04 01:18:07;;;;;;;17.50;11.70;;;;;;;2.15;80.22;101689.65;107517;1253;78531;-57
2023/01/04 01:20:55;;;;;;;18.90;11.30;;;;;;;2.13;80.36;101687.16;107540;1253;81856;-55
2023/01/04 01:23:35;;;;;;;18.00;10.60;;;;;;;2.13;80.28;101692.86;107549;1253;99767;-55
2023/01/04 01:26:13;;;;;;;17.70;11.60;;;;;;;2.10;80.52;101694.11;107572;1253;88514;-58
2023/01/04 01:28:49;;;;;;;19.80;12.20;;;;;;;2.11;80.60;101690.81;107574;1253;94386;-57
2023/01/04 01:31:28;;;;;;;21.20;11.80;;;;;;;2.13;80.85;101696.73;107490;1257;79270;-55
2023/01/04 01:34:04;;;;;;;20.40;12.20;;;;;;;2.15;80.78;101699.77;107379;1253;81132;-58
2023/01/04 01:36:43;;;;;;;22.40;13.20;;;;;;;2.18;80.84;101690.70;107528;1253;98950;-57
2023/01/04 01:39:22;;;;;;;20.90;12.60;;;;;;;2.16;80.69;101689.79;107524;1254;88621;-55
2023/01/04 01:42:02;;;;;;;22.30;12.80;;;;;;;2.11;80.77;101688.00;107520;1253;94736;-55
2023/01/04 01:45:22;;;;;;;20.40;11.70;;;;;;;2.08;80.82;101678.95;107498;1253;79744;-56
2023/01/04 01:48:07;;;;;;;19.50;11.90;;;;;;;2.01;80.94;101665.21;107589;1253;81711;-56
2023/01/04 01:50:50;;;;;;;22.50;12.60;;;;;;;2.00;80.88;101666.92;107558;1253;99019;-55
2023/01/04 01:53:29;;;;;;;23.10;12.90;;;;;;;1.95;80.70;101667.59;107576;1253;89313;-55
2023/01/04 01:56:09;;;;;;;21.60;12.50;;;;;;;1.87;80.76;101659.99;107541;1253;95565;-55
2023/01/04 01:58:52;;;;;;;22.00;13.50;;;;;;;1.77;80.84;101655.30;107549;1253;78944;-55
2023/01/04 02:01:36;;;;;;;21.00;14.20;;;;;;;1.69;80.87;101658.86;107588;1254;82925;-56
2023/01/04 02:04:12;;;;;;;;;;;;;;;1.64;81.01;101668.95;107551;1253;99962;-56
2023/01/04 02:06:55;;;;;;;23.00;13.80;;;;;;;1.61;81.11;101666.52;107571;1253;89158;-56
2023/01/04 02:09:34;;;;;;;19.70;12.70;;;;;;;1.61;81.42;101669.54;107504;1253;95080;-58
2023/01/04 02:12:17;;;;;;;23.40;13.20;;;;;;;1.61;81.48;101667.75;107432;1253;79471;-57
2023/01/04 02:14:56;;;;;;;20.50;12.60;;;;;;;1.58;81.55;101673.10;107548;1253;81355;-56
2023/01/04 02:17:55;;;;;;;20.90;13.20;;;;;;;1.53;81.67;101677.33;107502;1253;99271;-56
2023/01/04 02:20:48;;;;;;;22.20;13.70;;;;;;;1.49;81.60;101675.30;107370;1254;89042;-54
2023/01/04 02:24:23;;;;;;;20.50;13.10;;;;;;;1.41;81.87;101667.63;107517;1253;94204;-56
2023/01/04 02:27:43;;;;;;;20.30;12.80;;;;;;;1.28;81.92;101661.39;107529;1253;79180;-56
2023/01/04 02:30:56;;;;;;;23.20;13.40;;;;;;;1.18;82.07;101658.87;107551;1253;80777;-56
2023/01/04 02:34:06;;;;;;;23.10;13.30;;;;;;;1.09;82.11;101651.63;107525;1253;97005;-56
2023/01/04 02:36:54;;;;;;;22.40;13.30;;;;;;;0.98;82.12;101651.45;107518;1253;88338;-55
2023/01/04 02:39:48;;;;;;;21.40;13.40;;;;;;;0.93;82.03;101646.27;107553;1254;93955;-58
2023/01/04 02:45:45;;;;;;;21.30;12.90;;;;;;;0.77;82.22;101647.17;107543;1254;82464;-59
2023/01/04 02:51:32;;;;;;;21.40;13.20;;;;;;;0.71;82.42;101639.41;107505;1254;86312;-56
2023/01/04 02:54:14;;;;;;;23.70;14.30;;;;;;;0.60;82.43;101642.01;107501;1253;93693;-56
2023/01/04 02:57:24;;;;;;;22.00;14.00;;;;;;;0.52;82.53;101648.88;107505;1253;81758;-56
2023/01/04 03:00:29;;;;;;;22.40;14.00;;;;;;;0.46;82.59;101649.09;107521;1258;83539;-56
2023/01/04 03:06:42;;;;;;;24.70;14.80;;;;;;;0.37;82.79;101650.88;107122;1253;88936;-55
2023/01/04 03:09:28;;;;;;;27.10;16.20;;;;;;;0.30;82.82;101645.84;107559;1253;94221;-58
2023/01/04 03:12:31;;;;;;;27.40;14.70;;;;;;;0.26;82.94;101644.16;107521;1253;78220;-58
2023/01/04 03:15:17;;;;;;;26.40;15.50;;;;;;;0.15;82.93;101634.92;107533;1253;80973;-55
2023/01/04 03:18:02;;;;;;;23.70;14.40;;;;;;;0.08;83.04;101632.34;107516;1254;97532;-56
2023/01/04 03:20:49;;;;;;;24.10;14.20;;;;;;;0.04;82.98;101623.16;107557;1254;88040;-55
2023/01/04 03:35:51;;;;;;;26.10;15.00;;;;;;;-0.28;83.28;101593.98;107525;1253;87689;-55
2023/01/04 03:51:06;;;;;;;21.10;13.90;;;;;;;-0.41;83.58;101598.27;107046;1259;87309;-55
2023/01/04 03:53:50;;;;;;;23.30;13.80;;;;;;;-0.47;83.62;101587.52;107429;1254;95180;-55
2023/01/04 03:56:30;;;;;;;20.70;12.70;;;;;;;-0.56;83.55;101580.23;107528;1259;79056;-55
2023/01/04 03:59:11;;;;;;;23.10;13.90;;;;;;;-0.59;83.63;101579.70;107561;1254;82609;-55
2023/01/04 04:01:54;;;;;;;20.50;12.90;;;;;;;-0.63;83.90;101586.80;107367;1253;99596;-55
2023/01/04 04:10:32;;;;;;;22.50;13.80;;;;;;;-0.58;84.29;101585.64;107554;1253;81168;-55
2023/01/04 04:13:21;;;;;;;23.20;13.90;;;;;;;-0.53;84.45;101583.61;107581;1253;82073;-54
2023/01/04 04:16:01;;;;;;;22.90;13.00;;;;;;;-0.53;84.50;101578.48;107549;1253;99827;-58
2023/01/04 04:18:39;;;;;;;23.60;13.00;;;;;;;-0.49;84.73;101577.54;107542;1253;88841;-58
2023/01/04 04:21:19;;;;;;;20.70;13.00;;;;;;;-0.47;84.75;101583.09;107469;1253;92820;-57
2023/01/04 04:24:03;;;;;;;26.80;14.60;;;;;;;-0.47;84.65;101588.23;107524;1254;80059;-57
2023/01/04 04:26:42;;;;;;;24.60;14.70;;;;;;;-0.50;84.66;101585.70;107498;1253;82481;-57
2023/01/04 04:29:17;;;;;;;23.80;14.80;;;;;;;-0.55;84.78;101581.59;107539;1258;98355;-57
2023/01/04 04:31:57;;;;;;;20.90;13.30;;;;;;;-0.59;84.63;101582.90;107513;1253;86696;-57
2023/01/04 04:34:33;;;;;;;26.90;13.60;;;;;;;-0.63;84.61;101578.47;107565;1253;92798;-54
2023/01/04 04:37:08;;;;;;;23.30;14.10;;;;;;;-0.56;85.00;101575.84;107549;1253;77980;-55
2023/01/04 04:39:51;;;;;;;22.70;14.10;;;;;;;-0.52;85.07;101575.23;107550;1253;82418;-54
2023/01/04 04:42:28;;;;;;;25.10;14.50;;;;;;;-0.53;84.99;101569.80;107518;1254;99551;-55
2023/01/04 04:45:10;;;;;;;23.90;14.90;;;;;;;-0.51;85.11;101573.91;107570;1253;88074;-57
2023/01/04 04:47:50;;;;;;;24.00;13.80;;;;;;;-0.54;85.09;101572.33;107543;1258;94506;-57
2023/01/04 04:50:33;;;;;;;19.80;12.90;;;;;;;-0.56;85.06;101575.30;107343;1253;79258;-56
2023/01/04 04:53:07;;;;;;;22.50;13.30;;;;;;;-0.58;85.14;101573.30;107470;1253;82119;-57
2023/01/04 04:55:44;;;;;;;23.90;15.20;;;;;;;-0.63;85.10;101573.55;107547;1253;98778;-57
2023/01/04 04:58:22;;;;;;;27.40;15.90;;;;;;;-0.65;85.16;101570.16;107542;1254;88356;-58
2023/01/04 05:00:59;;;;;;;22.50;14.80;;;;;;;-0.67;85.08;101570.46;107537;1253;93899;-55
2023/01/04 05:03:40;;;;;;;20.90;12.80;;;;;;;-0.72;85.06;101564.20;107327;1256;81745;-55
2023/01/04 05:06:20;;;;;;;22.00;13.80;;;;;;;-0.76;85.08;101566.71;107614;1253;81230;-55
2023/01/04 05:09:00;;;;;;;21.40;12.70;;;;;;;-0.76;85.00;101570.98;107600;1254;97546;-57
2023/01/04 05:14:41;;;;;;;22.90;13.60;;;;;;;-0.88;85.17;101571.64;107490;1253;93580;-55
2023/01/04 05:17:23;;;;;;;22.20;14.20;;;;;;;-0.88;85.35;101573.79;107512;1253;80171;-55
2023/01/04 05:20:05;;;;;;;22.70;13.70;;;;;;;-0.85;85.32;101569.02;107569;1254;81720;-57
2023/01/04 05:22:46;;;;;;;22.50;13.90;;;;;;;-0.88;85.36;101560.19;107479;1254;99440;-57
2023/01/04 05:25:21;;;;;;;20.60;13.30;;;;;;;-0.92;85.40;101551.92;107564;1254;87176;-55
2023/01/04 05:28:02;;;;;;;20.50;13.70;;;;;;;-0.93;85.33;101545.27;107503;1254;94938;-55
2023/01/04 05:30:54;;;;;;;22.30;13.90;;;;;;;-0.93;85.50;101539.77;107566;1253;77963;-55
2023/01/04 05:33:38;;;;;;;23.10;13.40;;;;;;;-0.88;85.54;101543.73;107518;1254;83393;-54
2023/01/04 05:36:18;;;;;;;25.20;13.90;;;;;;;-0.86;85.64;101543.98;107540;1253;97865;-54
2023/01/04 05:38:56;;;;;;;24.80;13.60;;;;;;;-0.88;85.60;101540.94;107561;1253;87044;-57
2023/01/04 05:44:32;;;;;;;25.50;14.80;;;;;;;-0.95;85.54;101533.72;107588;1254;78383;-56
2023/01/04 05:47:15;;;;;;;25.30;14.30;;;;;;;-0.97;85.77;101529.95;107596;1257;83040;-55
2023/01/04 05:49:56;;;;;;;23.80;15.00;;;;;;;-0.97;85.66;101528.17;107524;1253;99650;-58
2023/01/04 05:52:41;;;;;;;24.10;14.60;;;;;;;-0.98;85.79;101523.64;107543;1258;88172;-58
2023/01/04 05:55:20;;;;;;;24.10;14.30;;;;;;;-1.02;85.80;101522.45;107554;1258;93535;-56
2023/01/04 05:58:00;;;;;;;22.80;13.50;;;;;;;-1.04;85.81;101522.40;107529;1254;78465;-54
2023/01/04 06:00:44;;;;;;;24.30;14.80;;;;;;;-1.05;85.75;101517.50;107540;1254;81757;-55
2023/01/04 06:03:21;;;;;;;23.80;14.70;;;;;;;-1.03;85.86;101525.17;107534;1254;99636;-56
2023/01/04 06:05:56;;;;;;;25.60;15.10;;;;;;;-1.07;85.72;101518.52;107489;1253;87619;-58
2023/01/04 06:08:41;;;;;;;22.50;15.40;;;;;;;-1.12;85.75;101517.73;107095;1254;445050;-57
2023/01/04 06:11:21;;;;;;;22.60;12.30;;;;;;;-1.19;85.54;101516.00;107494;1254;80304;-60
2023/01/04 06:14:08;;;;;;;21.50;13.60;;;;;;;-1.23;85.65;101511.64;107334;1254;81236;-57
2023/01/04 06:16:50;;;;;;;23.40;14.80;;;;;;;-1.24;85.80;101507.81;107536;1254;97514;-57
2023/01/04 06:19:33;;;;;;;27.30;15.10;;;;;;;-1.27;85.93;101501.99;107520;1258;88484;-55
2023/01/04 06:22:17;;;;;;;23.00;14.40;;;;;;;-1.27;85.89;101491.72;107437;1254;95238;-55
2023/01/04 06:24:57;;;;;;;24.40;15.60;;;;;;;-1.32;85.88;101479.83;107482;1253;81338;-55
2023/01/04 06:27:37;;;;;;;22.70;14.30;;;;;;;-1.38;85.82;101475.73;107527;1254;80587;-56
2023/01/04 06:30:16;;;;;;;24.60;15.10;;;;;;;-1.37;85.99;101471.31;107577;1258;98460;-59
2023/01/04 06:32:55;;;;;;;21.50;14.40;;;;;;;-1.31;86.09;101466.52;107504;1254;88926;-57
2023/01/04 06:35:32;;;;;;;19.90;14.50;;;;;;;-1.30;85.98;101467.71;107536;1253;95470;-55
2023/01/04 06:38:14;;;;;;;26.30;15.50;;;;;;;-1.31;86.04;101469.70;107476;1257;79610;-55
2023/01/04 06:41:00;;;;;;;25.00;15.50;;;;;;;-1.29;86.21;101467.15;107550;1254;81899;-54
2023/01/04 06:43:35;;;;;;;28.00;17.30;;;;;;;-1.27;86.22;101462.23;107519;1259;99466;-54
2023/01/04 06:46:18;;;;;;;30.20;16.90;;;;;;;-1.24;86.26;101462.90;107568;1253;87930;-55
2023/01/04 06:48:55;;;;;;;28.10;17.50;;;;;;;-1.18;86.37;101462.42;107609;1254;95137;-57
2023/01/04 06:51:34;;;;;;;28.50;17.60;;;;;;;-1.09;86.48;101458.88;107328;1255;77711;-57
2023/01/04 06:54:20;;;;;;;27.20;17.20;;;;;;;-1.05;86.47;101458.98;107543;1255;81444;-57
2023/01/04 06:57:03;;;;;;;30.50;17.70;;;;;;;-1.01;86.67;101463.18;107526;1253;96510;-58
2023/01/04 06:59:42;;;;;;;29.90;17.60;;;;;;;-0.98;86.67;101465.46;107498;1258;88962;-58
2023/01/04 07:02:26;;;;;;;25.20;16.30;;;;;;;-0.95;86.50;101469.00;107480;1254;94981;-57
2023/01/04 07:05:06;;;;;;;28.20;17.60;;;;;;;-0.92;86.36;101470.58;107513;1254;80164;-57
2023/01/04 07:07:48;;;;;;;30.40;17.60;;;;;;;-0.90;86.45;101481.24;107500;1254;82925;-57
2023/01/04 07:10:27;;;;;;;26.10;16.30;;;;;;;-0.89;86.67;101487.55;107535;1254;99930;-57
2023/01/04 07:13:11;;;;;;;26.60;15.70;;;;;;;-0.86;86.44;101494.48;107522;1254;87634;-57
2023/01/04 07:15:46;;;;;;;26.50;16.00;;;;;;;-0.87;86.46;101494.17;107450;1254;93232;-55
2023/01/04 07:18:23;;;;;;;27.60;16.90;;;;;;;-0.86;86.34;101489.15;107581;1254;81552;-55
2023/01/04 07:21:06;;;;;;;28.10;15.90;;;;;;;-0.84;86.56;101489.55;107541;1259;83375;-57
2023/01/04 07:23:47;;;;;;;24.80;15.40;;;;;;;-0.77;86.54;101484.00;107527;1254;100008;-57
2023/01/04 07:26:27;;;;;;;25.50;15.90;;;;;;;-0.70;86.60;101475.61;107603;1257;87424;-58
2023/01/04 07:29:15;;;;;;;26.30;17.30;;;;;;;-0.65;86.53;101473.19;107578;1255;95388;-55
2023/01/04 07:31:52;;;;;;;29.10;17.10;;;;;;;-0.61;86.47;101478.11;107533;1259;76296;-55
2023/01/04 07:34:30;;;;;;;30.30;16.60;;;;;;;-0.57;86.46;101472.77;107508;1253;81475;-56
2023/01/04 07:37:11;;;;;;;30.60;17.70;;;;;;;-0.50;86.54;101466.64;107574;1255;100117;-55
2023/01/04 07:39:52;;;;;;;25.10;16.20;;;;;;;-0.35;86.57;101458.86;107544;1254;86812;-55
2023/01/04 07:42:28;;;;;;;30.80;17.80;;;;;;;-0.26;86.72;101452.77;107538;1253;95217;-55
2023/01/04 07:45:05;;;;;;;27.30;17.70;;;;;;;-0.03;86.91;101447.27;107549;1254;79147;-55
2023/01/04 07:47:42;;;;;;;29.40;17.40;;;;;;;0.39;86.90;101444.15;107543;1257;81373;-55
2023/01/04 07:50:17;;;;;;;28.40;17.40;;;;;;;0.92;86.52;101441.92;107533;1258;98451;-55
2023/01/04 07:52:56;;;;;;;33.30;18.20;;;;;;;1.27;86.03;101443.55;107348;1259;90572;-55
2023/01/04 07:55:38;;;;;;;26.20;16.80;;;;;;;1.46;85.75;101440.13;107524;1257;95421;-57
2023/01/04 07:58:13;;;;;;;;;;;;;;;1.62;85.33;101435.63;107533;1258;81036;-58
2023/01/04 08:00:54;;;;;;;27.70;16.90;;;;;;;1.70;85.35;101427.45;107551;1256;81194;-56
2023/01/04 08:03:37;;;;;;;;;;;;;;;1.83;85.16;101415.66;107515;1254;100266;-55
2023/01/04 08:06:21;;;;;;;26.50;17.50;;;;;;;1.90;85.12;101412.35;107534;1260;88724;-56
2023/01/04 08:09:03;;;;;;;26.40;17.40;;;;;;;2.10;84.68;101412.52;107536;1254;94606;-56
2023/01/04 08:11:45;;;;;;;30.10;19.30;;;;;;;2.26;84.41;101410.20;107595;1258;78846;-56
2023/01/04 08:14:29;;;;;;;30.00;17.80;;;;;;;2.37;84.26;101401.40;107509;1255;81738;-57
2023/01/04 08:17:12;;;;;;;26.30;18.50;;;;;;;2.35;83.97;101399.43;107513;1258;98647;-57
2023/01/04 08:19:49;;;;;;;24.80;16.70;;;;;;;2.23;83.98;101394.46;107563;1254;87665;-59
2023/01/04 08:22:26;;;;;;;25.90;16.60;;;;;;;2.22;84.02;101389.04;107537;1258;95664;-58
2023/01/04 08:25:05;;;;;;;27.10;17.50;;;;;;;2.20;84.10;101386.36;107579;1255;78519;-59
2023/01/04 08:27:41;;;;;;;26.20;17.80;;;;;;;2.18;84.15;101377.60;107555;1255;82608;-58
2023/01/04 08:30:26;;;;;;;28.00;17.50;;;;;;;2.14;84.18;101370.42;107377;1258;99401;-56
2023/01/04 08:33:15;;;;;;;23.80;16.80;;;;;;;2.14;84.19;101368.30;107347;1260;89889;-56
2023/01/04 08:36:08;;;;;;;24.50;17.00;;;;;;;2.17;84.16;101376.27;107518;1255;95203;-56
2023/01/04 08:38:48;;;;;;;27.10;17.00;;;;;;;2.47;84.58;101369.06;107497;1258;78914;-56
2023/01/04 08:41:32;;;;;;;26.20;16.90;;;;;;;3.33;83.98;101356.76;107519;1254;82541;-56
2023/01/04 08:44:15;;;;;;;26.30;16.90;;;;;;;3.94;83.54;101361.22;107489;1254;99520;-56
2023/01/04 08:46:59;;;;;;;26.70;17.10;;;;;;;3.94;83.01;101361.98;107511;1255;88758;-55
2023/01/04 08:49:40;;;;;;;26.10;17.70;;;;;;;3.88;82.80;101364.94;107535;1254;94239;-56
2023/01/04 08:52:27;;;;;;;26.00;18.60;;;;;;;3.79;82.95;101359.80;107529;1260;79409;-56
2023/01/04 08:55:02;;;;;;;26.70;17.80;;;;;;;3.74;82.98;101357.67;107502;1255;82474;-56
2023/01/04 08:57:44;;;;;;;28.00;17.50;;;;;;;3.74;82.95;101354.91;107519;1257;99960;-56
2023/01/04 09:00:20;;;;;;;25.20;17.70;;;;;;;3.85;82.95;101355.96;107568;1257;87579;-56
2023/01/04 09:03:03;;;;;;;30.30;18.80;;;;;;;4.05;82.87;101358.40;107501;1255;96227;-56
2023/01/04 09:05:44;;;;;;;25.30;16.80;;;;;;;4.36;82.89;101351.03;107540;1253;81314;-55
2023/01/04 09:08:26;;;;;;;26.80;18.20;;;;;;;4.63;82.73;101335.89;107518;1259;81685;-56
2023/01/04 09:11:12;;;;;;;26.50;19.40;;;;;;;4.99;82.68;101333.92;107520;1257;97932;-55
2023/01/04 09:13:54;;;;;;;25.70;18.30;;;;;;;5.41;82.34;101327.55;107528;1260;89111;-56
2023/01/04 09:16:39;;;;;;;26.10;18.80;;;;;;;5.67;82.13;101320.40;107510;1257;93342;-56
2023/01/04 09:19:12;;;;;;;;;;;;;;;5.79;81.76;101318.09;107543;1255;80560;-56
2023/01/04 09:21:54;;;;;;;24.90;18.10;;;;;;;5.83;81.79;101306.81;107494;1259;82984;-55
2023/01/04 09:24:37;;;;;;;29.00;18.50;;;;;;;5.82;80.91;101299.09;107496;1257;98234;-58
2023/01/04 09:27:11;;;;;;;28.40;18.80;;;;;;;5.62;80.27;101291.05;107506;1254;88018;-58
2023/01/04 09:29:46;;;;;;;;;;;;;;;5.51;80.57;101290.40;107504;1258;93620;-58
2023/01/04 09:32:22;;;;;;;27.70;19.10;;;;;;;5.45;80.62;101285.95;107494;1254;79990;-58
2023/01/04 09:35:04;;;;;;;26.70;18.70;;;;;;;5.44;80.20;101280.30;107507;1257;81796;-56
2023/01/04 09:37:43;;;;;;;29.40;19.00;;;;;;;5.38;80.27;101275.34;107535;1257;100089;-58
2023/01/04 09:40:37;;;;;;;28.10;19.70;;;;;;;5.43;80.20;101277.93;107519;1257;88430;-58
2023/01/04 09:43:19;;;;;;;25.50;19.50;;;;;;;5.48;80.23;101271.58;107520;1254;93547;-58
2023/01/04 09:46:05;;;;;;;24.20;17.50;;;;;;;5.84;80.00;101265.77;107558;1254;80129;-56
2023/01/04 09:48:44;;;;;;;28.00;18.20;;;;;;;5.97;79.64;101251.11;107541;1254;80982;-56
2023/01/04 09:51:24;;;;;;;26.00;18.40;;;;;;;5.84;79.69;101245.95;107558;1254;99482;-58
2023/01/04 09:54:07;;;;;;;24.50;17.40;;;;;;;5.85;79.26;101242.70;107543;1255;88789;-57
2023/01/04 09:56:58;;;;;;;28.20;18.60;;;;;;;5.79;79.01;101243.40;107537;1254;95062;-58
2023/01/04 09:59:35;;;;;;;25.60;18.70;;;;;;;5.64;79.20;101237.63;107551;1257;78237;-56
2023/01/04 10:02:21;;;;;;;25.70;17.90;;;;;;;5.53;78.99;101231.79;107522;1254;83417;-56
2023/01/04 10:05:04;;;;;;;25.70;17.60;;;;;;;5.49;79.17;101230.96;107518;1254;100475;-56
2023/01/04 10:07:42;;;;;;;25.50;18.40;;;;;;;5.48;79.20;101224.44;107471;1257;88689;-55
2023/01/04 10:10:39;;;;;;;25.90;18.50;;;;;;;5.41;78.94;101214.85;107490;1254;94916;-57
2023/01/04 10:13:31;;;;;;;24.00;17.40;;;;;;;5.42;79.08;101212.11;107448;1258;79453;-58
2023/01/04 10:16:22;;;;;;;26.20;17.40;;;;;;;5.42;78.88;101204.02;107535;1254;79947;-55
2023/01/04 10:19:14;;;;;;;26.20;17.50;;;;;;;5.43;78.99;101193.74;107537;1255;99310;-56
2023/01/04 10:21:55;;;;;;;23.00;15.50;;;;;;;5.48;78.92;101185.46;107520;1254;88706;-56
2023/01/04 10:24:53;;;;;;;22.70;15.90;;;;;;;5.58;79.10;101182.95;107493;1257;94432;-54
2023/01/04 10:27:44;;;;;;;25.00;17.40;;;;;;;5.66;79.16;101165.81;107498;1254;78179;-56
2023/01/04 10:30:41;;;;;;;24.20;16.70;;;;;;;5.77;78.88;101149.70;107518;1254;82271;-57
2023/01/04 10:33:32;;;;;;;23.60;16.30;;;;;;;5.88;78.88;101136.59;107550;1255;98403;-58
2023/01/04 10:36:20;;;;;;;22.20;15.30;;;;;;;5.90;78.56;101119.20;107535;1254;85875;-56
2023/01/04 10:39:05;;;;;;;22.70;15.00;;;;;;;5.92;78.55;101095.66;107565;1254;94267;-56
2023/01/04 10:41:54;;;;;;;22.00;14.80;;;;;;;5.83;78.32;101077.19;107540;1254;79021;-56
2023/01/04 10:44:45;;;;;;;22.30;15.00;;;;;;;5.80;78.28;101065.27;107612;1257;83147;-56
2023/01/04 10:47:33;;;;;;;18.80;14.20;;;;;;;5.83;78.20;101052.82;107520;1254;99674;-56
2023/01/04 10:50:20;;;;;;;21.60;13.80;;;;;;;5.83;77.99;101044.04;107530;1257;88236;-55
2023/01/04 10:53:03;;;;;;;20.50;13.40;;;;;;;5.83;78.11;101038.91;107471;1255;93863;-56
2023/01/04 10:55:52;;;;;;;23.20;13.20;;;;;;;5.85;77.63;101030.47;107479;1254;79521;-56
2023/01/04 10:58:36;;;;;;;19.50;13.70;;;;;;;5.82;77.63;101024.84;107493;1254;81336;-55
2023/01/04 11:01:24;;;;;;;18.20;12.50;;;;;;;5.83;77.93;101019.59;107410;1254;98543;-56
2023/01/04 11:04:10;;;;;;;17.90;13.80;;;;;;;5.88;77.76;101014.70;107488;1254;88948;-57
2023/01/04 11:06:57;;;;;;;23.20;14.60;;;;;;;5.93;77.63;101009.72;107509;1254;95293;-57
2023/01/04 11:09:40;;;;;;;23.40;14.60;;;;;;;5.92;77.53;101006.81;107345;1254;80050;-58
2023/01/04 11:12:25;;;;;;;20.10;14.00;;;;;;;5.89;77.51;101007.58;107471;1254;81742;-58
2023/01/04 11:15:02;;;;;;;20.30;14.00;;;;;;;5.90;77.42;101006.98;107524;1254;99708;-58
2023/01/04 11:17:37;;;;;;;18.40;13.00;;;;;;;5.84;77.52;101006.66;107518;1254;88617;-58
2023/01/04 11:20:19;;;;;;;22.50;13.90;;;;;;;5.80;77.19;100998.59;107510;1254;94120;-55
2023/01/04 11:23:06;;;;;;;20.60;12.80;;;;;;;5.82;77.33;100987.69;107519;1255;81527;-56
2023/01/04 11:25:51;;;;;;;20.40;13.20;;;;;;;5.84;77.45;100978.56;107528;1254;81986;-59
2023/01/04 11:28:39;;;;;;;19.80;13.30;;;;;;;5.92;77.36;100970.31;107574;1253;97061;-58
2023/01/04 11:31:27;;;;;;;22.80;14.20;;;;;;;5.91;77.44;100962.55;107503;1254;87386;-56
2023/01/04 11:34:06;;;;;;;21.80;13.90;;;;;;;5.92;77.35;100952.11;107433;1254;94442;-56
2023/01/04 11:36:50;;;;;;;22.60;14.00;;;;;;;5.84;77.27;100941.39;107498;1254;78107;-58
2023/01/04 11:39:27;;;;;;;21.20;13.80;;;;;;;5.73;77.14;100934.98;107502;1254;82054;-58
2023/01/04 11:42:19;;;;;;;23.00;15.60;;;;;;;5.60;77.25;100925.88;107524;1254;97270;-57
2023/01/04 11:45:06;;;;;;;23.80;15.70;;;;;;;5.54;77.29;100913.75;107514;1254;88551;-55
2023/01/04 11:47:50;;;;;;;20.20;14.20;;;;;;;5.51;77.42;100900.41;107491;1253;94189;-55
2023/01/04 11:50:50;;;;;;;19.70;13.20;;;;;;;5.54;77.47;100889.42;107513;1257;79902;-59
2023/01/04 11:53:31;;;;;;;22.30;14.60;;;;;;;5.51;77.35;100878.98;107406;1253;82503;-57
2023/01/04 11:56:23;;;;;;;22.20;15.60;;;;;;;5.50;77.47;100864.66;107516;1254;100052;-57
2023/01/04 11:59:21;;;;;;;23.40;16.10;;;;;;;5.45;77.60;100851.55;107513;1254;86827;-57
2023/01/04 12:02:26;;;;;;;25.50;17.00;;;;;;;5.41;77.71;100843.50;107483;1254;94726;-58
2023/01/04 12:05:16;;;;;;;25.10;16.70;;;;;;;5.34;77.80;100836.46;107376;1257;79769;-57
2023/01/04 12:07:52;;;;;;;22.90;15.50;;;;;;;5.30;77.75;100832.96;107539;1255;82036;-58
2023/01/04 12:10:33;;;;;;;25.00;15.70;;;;;;;5.32;78.10;100827.21;107535;1254;98321;-58
2023/01/04 12:13:17;;;;;;;23.30;15.20;;;;;;;5.36;78.05;100815.96;107520;1254;88187;-57
2023/01/04 12:16:08;;;;;;;22.70;15.20;;;;;;;5.41;78.07;100816.04;107542;1254;93172;-58
2023/01/04 12:18:50;;;;;;;24.60;16.10;;;;;;;5.43;78.19;100814.92;107514;1254;77910;-58
2023/01/04 12:21:33;;;;;;;23.50;16.10;;;;;;;5.39;78.23;100813.90;107510;1254;82395;-55
2023/01/04 12:24:16;;;;;;;22.20;14.80;;;;;;;5.43;78.15;100809.26;107504;1254;100092;-57
2023/01/04 12:26:55;;;;;;;22.30;14.20;;;;;;;5.46;78.25;100798.52;107533;1254;87552;-56
2023/01/04 12:29:56;;;;;;;24.10;16.50;;;;;;;5.53;78.46;100786.06;107518;1254;94136;-55
2023/01/04 12:32:50;;;;;;;21.10;15.00;;;;;;;5.59;78.27;100777.46;107478;1254;79752;-56
2023/01/04 12:36:07;;;;;;;25.40;17.20;;;;;;;5.62;78.26;100761.29;107478;1254;82750;-57
2023/01/04 12:39:27;;;;;;;24.70;15.60;;;;;;;5.59;78.22;100756.36;107487;1254;98760;-57
2023/01/04 12:42:26;;;;;;;25.30;16.20;;;;;;;5.56;78.09;100762.61;107560;1254;86560;-58
2023/01/04 12:45:24;;;;;;;26.30;15.50;;;;;;;5.55;78.23;100756.46;107483;1254;95544;-56
2023/01/04 12:51:26;;;;;;;25.50;16.60;;;;;;;5.42;78.22;100738.39;107548;1257;80467;-58
2023/01/04 12:54:30;;;;;;;25.50;17.60;;;;;;;5.37;78.08;100726.52;107520;1257;99275;-58
2023/01/04 12:57:31;;;;;;;24.30;15.20;;;;;;;5.39;78.14;100717.97;107348;1257;88547;-58
2023/01/04 13:00:12;;;;;;;23.90;16.00;;;;;;;5.37;78.36;100711.73;107356;1256;94605;-58
2023/01/04 13:03:33;;;;;;;24.90;16.00;;;;;;;5.33;78.45;100708.67;107341;1256;81349;-59
2023/01/04 13:06:19;;;;;;;23.00;15.80;;;;;;;5.28;78.39;100689.70;107322;1256;82967;-58
2023/01/04 13:09:01;;;;;;;24.50;16.00;;;;;;;5.28;78.48;100677.75;107368;1256;98047;-55
2023/01/04 13:12:07;;;;;;;27.20;18.00;;;;;;;5.31;78.50;100671.91;107352;1257;87198;-55
2023/01/04 13:14:48;;;;;;;25.90;16.80;;;;;;;5.28;78.51;100665.23;107327;1256;94226;-58